MSC Lisbon — A8LL9 — position and weather

sailwx.info

Track history (hours):
 
Tides and Currents Weather Stations Pressure Air Temp Water Temp Dewpoint Dewpoint Depression Visibility Wind Speed Wind Dir Waves Ship Positions

MSC Lisbon

Last reported at 2016-Jul-22 02:25 UTC. Time now 2016-Jul-24 16:39 UTC.
Position N 31°54' W 080°33'.

Length 336.7 m; beam 45.6 m; draft 15.3 m.

Type: Ship (hazmat cat A). MMSI: 636091276.

Date/timePositionNaut miles runAvg speedWind from/ knotsBaromVisibWave heightAir tempDewpointWater temp
2016-Jul-22 02:25N 31°54' W 080°33'1314.9
2016-Jul-22 01:34N 31°60' W 080°47'1110.9
2016-Jul-22 00:34N 32°04' W 080°59'6 6.0
2016-Jul-21 23:34N 32°05' W 081°06'4 3.8
2016-Jul-21 22:34N 32°08' W 081°08'0 0.2
2016-Jul-21 21:29N 32°08' W 081°08'0 0.0
2016-Jul-21 20:29N 32°08' W 081°08'0 0.0
2016-Jul-21 19:29N 32°08' W 081°08'0 0.0
2016-Jul-21 18:29N 32°08' W 081°08'0 0.0
2016-Jul-21 17:33N 32°08' W 081°08'0 0.0
2016-Jul-21 16:33N 32°08' W 081°08'0 0.0
2016-Jul-21 15:31N 32°08' W 081°08'0 0.0
2016-Jul-21 14:31N 32°08' W 081°08'0 0.0
2016-Jul-21 13:25N 32°08' W 081°08'0 0.0
2016-Jul-21 12:31N 32°08' W 081°08'0 0.0
2016-Jul-21 11:18N 32°08' W 081°08'0 0.0
2016-Jul-21 10:30N 32°08' W 081°08'0 0.4
2016-Jul-21 09:33N 32°08' W 081°08'5 4.7
2016-Jul-21 08:33N 32°05' W 081°04'7 6.7
2016-Jul-21 07:33N 32°03' W 080°56'10 9.5
2016-Jul-21 06:33N 31°59' W 080°46'1312.6
2016-Jul-21 05:33N 31°55' W 080°32'328 7.8
2016-Jul-19 11:29N 35°03' W 075°10'11310.9
2016-Jul-19 01:09N 36°51' W 075°50'813.7
2016-Jul-19 00:33N 36°56' W 075°57'1514.7
2016-Jul-18 23:31N 37°00' W 076°16'9 9.3
2016-Jul-18 22:33N 36°53' W 076°21'0 0.2
2016-Jul-18 21:28N 36°53' W 076°21'0 0.0
2016-Jul-18 15:10N 36°53' W 076°21'0 0.0
2016-Jul-18 14:31N 36°53' W 076°21'0 0.0
2016-Jul-18 13:25N 36°53' W 076°21'0 0.0
2016-Jul-18 12:13N 36°53' W 076°21'0 0.0
2016-Jul-18 10:33N 36°53' W 076°21'5 4.9
2016-Jul-18 09:33N 36°57' W 076°20'1212.1
2016-Jul-18 08:34N 36°58' W 076°05'1110.8
2016-Jul-18 07:33N 36°53' W 075°53'13 0.3
2016-Jul-16 12:25N 36°54' W 075°36'4812.4
2016-Jul-16 08:33N 37°26' W 074°52'1313.2
2016-Jul-16 07:33N 37°37' W 074°42'1413.3
2016-Jul-16 06:31N 37°48' W 074°32'5613.4
2016-Jul-16 02:20N 38°40' W 074°06'1113.4
2016-Jul-16 01:33N 38°50' W 074°02'2512.7
2016-Jul-15 23:33N 39°14' W 073°52'1312.7
2016-Jul-15 22:33N 39°27' W 073°53'1312.5
2016-Jul-15 21:33N 39°40' W 073°52'1313.0
2016-Jul-15 20:33N 39°53' W 073°51'1313.1
2016-Jul-15 19:33N 40°06' W 073°50'1812.2
2016-Jul-15 18:03N 40°24' W 073°48'4 7.7
2016-Jul-15 17:32N 40°28' W 073°51'1313.7
2016-Jul-15 16:33N 40°37' W 074°03'5 4.8
2016-Jul-15 15:33N 40°39' W 074°09'2 1.6
2016-Jul-15 14:33N 40°41' W 074°09'0 0.0
2016-Jul-15 13:33N 40°41' W 074°09'0 0.0
2016-Jul-15 12:33N 40°41' W 074°09'0 0.0
2016-Jul-15 11:33N 40°41' W 074°09'0 0.0
2016-Jul-15 10:34N 40°41' W 074°09'0 0.0
2016-Jul-15 09:33N 40°41' W 074°09'0 0.0
2016-Jul-15 08:33N 40°41' W 074°09'0 0.0
2016-Jul-15 07:34N 40°41' W 074°09'0 0.0
2016-Jul-15 06:33N 40°41' W 074°09'0 0.0
2016-Jul-15 05:33N 40°41' W 074°09'0 0.0
2016-Jul-15 04:33N 40°41' W 074°09'0 0.0
2016-Jul-15 03:34N 40°41' W 074°09'0 0.0
2016-Jul-15 02:33N 40°41' W 074°09'0 0.0
2016-Jul-15 01:33N 40°41' W 074°09'0 0.0
2016-Jul-15 00:33N 40°41' W 074°09'0 0.0
2016-Jul-14 23:33N 40°41' W 074°09'0 0.0
2016-Jul-14 22:33N 40°41' W 074°09'0 0.0
2016-Jul-14 21:33N 40°41' W 074°09'0 0.0
2016-Jul-14 20:34N 40°41' W 074°09'0 0.0
2016-Jul-14 19:33N 40°41' W 074°09'0 0.0
2016-Jul-14 18:34N 40°41' W 074°09'0 0.0
2016-Jul-14 17:34N 40°41' W 074°09'0 0.0
2016-Jul-14 16:34N 40°41' W 074°09'0 0.0
2016-Jul-14 15:33N 40°41' W 074°09'0 0.0
2016-Jul-14 14:33N 40°41' W 074°09'0 0.0
2016-Jul-14 13:33N 40°41' W 074°09'0 0.0
2016-Jul-14 12:33N 40°41' W 074°09'0 0.0
2016-Jul-14 11:34N 40°41' W 074°09'0 0.0
2016-Jul-14 10:33N 40°41' W 074°09'0 0.0
2016-Jul-14 09:33N 40°41' W 074°09'0 0.0
2016-Jul-14 08:34N 40°41' W 074°09'0 0.0
2016-Jul-14 07:34N 40°41' W 074°09'0 0.0
2016-Jul-14 06:34N 40°41' W 074°09'0 0.0
2016-Jul-14 05:33N 40°41' W 074°09'0 0.0
2016-Jul-14 04:33N 40°41' W 074°09'0 0.0
2016-Jul-14 03:33N 40°41' W 074°09'0 0.0
2016-Jul-14 02:33N 40°41' W 074°09'0 0.0
2016-Jul-14 01:34N 40°41' W 074°09'0 0.0
2016-Jul-14 00:34N 40°41' W 074°09'0 0.0
2016-Jul-13 23:34N 40°41' W 074°09'0 0.0
2016-Jul-13 22:33N 40°41' W 074°09'0 0.0
2016-Jul-13 21:33N 40°41' W 074°09'0 0.0
2016-Jul-13 20:34N 40°41' W 074°09'0 0.0
2016-Jul-13 19:33N 40°41' W 074°09'0 0.0
2016-Jul-13 18:33N 40°41' W 074°09'0 0.0
2016-Jul-13 17:33N 40°41' W 074°09'0 0.0
2016-Jul-13 16:33N 40°41' W 074°09'0 0.0
2016-Jul-13 15:33N 40°41' W 074°09'0 0.0
2016-Jul-13 14:34N 40°41' W 074°09'0 0.0
2016-Jul-13 13:33N 40°41' W 074°09'0 0.0
2016-Jul-13 12:33N 40°41' W 074°09'0 0.0
2016-Jul-13 11:33N 40°41' W 074°09'2 1.7
2016-Jul-13 10:34N 40°39' W 074°09'4 4.3
2016-Jul-13 09:33N 40°38' W 074°03'1111.0
2016-Jul-13 08:33N 40°29' W 073°55'1010.1
2016-Jul-13 07:33N 40°27' W 073°42'1717.2
2016-Jul-13 06:33N 40°29' W 073°19'1817.8
2016-Jul-13 05:33N 40°30' W 072°56'1818.1
2016-Jul-13 04:33N 40°31' W 072°32'3517.5
2016-Jul-13 02:34N 40°31' W 071°46'1817.6
2016-Jul-13 01:34N 40°32' W 071°23'4317.7
2016-Jul-12 23:09N 40°33' W 070°27'  
Track history (hours):
 
Tides and Currents Weather Stations Pressure Air Temp Water Temp Dewpoint Dewpoint Depression Visibility Wind Speed Wind Dir Waves Ship Positions

MSC Lisbon

Last reported at 2016-Jul-22 02:25 UTC. Time now 2016-Jul-24 16:39 UTC.
Position N 31°54' W 080°33'.

Length 336.7 m; beam 45.6 m; draft 15.3 m.

Type: Ship (hazmat cat A). MMSI: 636091276.

Date/timePositionNaut miles runAvg speedWind from/ knotsBaromVisibWave heightAir tempDewpointWater temp
2016-Jul-22 02:25N 31°54' W 080°33'1314.9
2016-Jul-22 01:34N 31°60' W 080°47'1110.9
2016-Jul-22 00:34N 32°04' W 080°59'6 6.0
2016-Jul-21 23:34N 32°05' W 081°06'4 3.8
2016-Jul-21 22:34N 32°08' W 081°08'0 0.2
2016-Jul-21 21:29N 32°08' W 081°08'0 0.0
2016-Jul-21 20:29N 32°08' W 081°08'0 0.0
2016-Jul-21 19:29N 32°08' W 081°08'0 0.0
2016-Jul-21 18:29N 32°08' W 081°08'0 0.0
2016-Jul-21 17:33N 32°08' W 081°08'0 0.0
2016-Jul-21 16:33N 32°08' W 081°08'0 0.0
2016-Jul-21 15:31N 32°08' W 081°08'0 0.0
2016-Jul-21 14:31N 32°08' W 081°08'0 0.0
2016-Jul-21 13:25N 32°08' W 081°08'0 0.0
2016-Jul-21 12:31N 32°08' W 081°08'0 0.0
2016-Jul-21 11:18N 32°08' W 081°08'0 0.0
2016-Jul-21 10:30N 32°08' W 081°08'0 0.4
2016-Jul-21 09:33N 32°08' W 081°08'5 4.7
2016-Jul-21 08:33N 32°05' W 081°04'7 6.7
2016-Jul-21 07:33N 32°03' W 080°56'10 9.5
2016-Jul-21 06:33N 31°59' W 080°46'1312.6
2016-Jul-21 05:33N 31°55' W 080°32'328 7.8
2016-Jul-19 11:29N 35°03' W 075°10'11310.9
2016-Jul-19 01:09N 36°51' W 075°50'813.7
2016-Jul-19 00:33N 36°56' W 075°57'1514.7
2016-Jul-18 23:31N 37°00' W 076°16'9 9.3
2016-Jul-18 22:33N 36°53' W 076°21'0 0.2
2016-Jul-18 21:28N 36°53' W 076°21'0 0.0
2016-Jul-18 15:10N 36°53' W 076°21'0 0.0
2016-Jul-18 14:31N 36°53' W 076°21'0 0.0
2016-Jul-18 13:25N 36°53' W 076°21'0 0.0
2016-Jul-18 12:13N 36°53' W 076°21'0 0.0
2016-Jul-18 10:33N 36°53' W 076°21'5 4.9
2016-Jul-18 09:33N 36°57' W 076°20'1212.1
2016-Jul-18 08:34N 36°58' W 076°05'1110.8
2016-Jul-18 07:33N 36°53' W 075°53'13 0.3
2016-Jul-16 12:25N 36°54' W 075°36'4812.4
2016-Jul-16 08:33N 37°26' W 074°52'1313.2
2016-Jul-16 07:33N 37°37' W 074°42'1413.3
2016-Jul-16 06:31N 37°48' W 074°32'5613.4
2016-Jul-16 02:20N 38°40' W 074°06'1113.4
2016-Jul-16 01:33N 38°50' W 074°02'2512.7
2016-Jul-15 23:33N 39°14' W 073°52'1312.7
2016-Jul-15 22:33N 39°27' W 073°53'1312.5
2016-Jul-15 21:33N 39°40' W 073°52'1313.0
2016-Jul-15 20:33N 39°53' W 073°51'1313.1
2016-Jul-15 19:33N 40°06' W 073°50'1812.2
2016-Jul-15 18:03N 40°24' W 073°48'4 7.7
2016-Jul-15 17:32N 40°28' W 073°51'1313.7
2016-Jul-15 16:33N 40°37' W 074°03'5 4.8
2016-Jul-15 15:33N 40°39' W 074°09'2 1.6
2016-Jul-15 14:33N 40°41' W 074°09'0 0.0
2016-Jul-15 13:33N 40°41' W 074°09'0 0.0
2016-Jul-15 12:33N 40°41' W 074°09'0 0.0
2016-Jul-15 11:33N 40°41' W 074°09'0 0.0
2016-Jul-15 10:34N 40°41' W 074°09'0 0.0
2016-Jul-15 09:33N 40°41' W 074°09'0 0.0
2016-Jul-15 08:33N 40°41' W 074°09'0 0.0
2016-Jul-15 07:34N 40°41' W 074°09'0 0.0
2016-Jul-15 06:33N 40°41' W 074°09'0 0.0
2016-Jul-15 05:33N 40°41' W 074°09'0 0.0
2016-Jul-15 04:33N 40°41' W 074°09'0 0.0
2016-Jul-15 03:34N 40°41' W 074°09'0 0.0
2016-Jul-15 02:33N 40°41' W 074°09'0 0.0
2016-Jul-15 01:33N 40°41' W 074°09'0 0.0
2016-Jul-15 00:33N 40°41' W 074°09'0 0.0
2016-Jul-14 23:33N 40°41' W 074°09'0 0.0
2016-Jul-14 22:33N 40°41' W 074°09'0 0.0
2016-Jul-14 21:33N 40°41' W 074°09'0 0.0
2016-Jul-14 20:34N 40°41' W 074°09'0 0.0
2016-Jul-14 19:33N 40°41' W 074°09'0 0.0
2016-Jul-14 18:34N 40°41' W 074°09'0 0.0
2016-Jul-14 17:34N 40°41' W 074°09'0 0.0
2016-Jul-14 16:34N 40°41' W 074°09'0 0.0
2016-Jul-14 15:33N 40°41' W 074°09'0 0.0
2016-Jul-14 14:33N 40°41' W 074°09'0 0.0
2016-Jul-14 13:33N 40°41' W 074°09'0 0.0
2016-Jul-14 12:33N 40°41' W 074°09'0 0.0
2016-Jul-14 11:34N 40°41' W 074°09'0 0.0
2016-Jul-14 10:33N 40°41' W 074°09'0 0.0
2016-Jul-14 09:33N 40°41' W 074°09'0 0.0
2016-Jul-14 08:34N 40°41' W 074°09'0 0.0
2016-Jul-14 07:34N 40°41' W 074°09'0 0.0
2016-Jul-14 06:34N 40°41' W 074°09'0 0.0
2016-Jul-14 05:33N 40°41' W 074°09'0 0.0
2016-Jul-14 04:33N 40°41' W 074°09'0 0.0
2016-Jul-14 03:33N 40°41' W 074°09'0 0.0
2016-Jul-14 02:33N 40°41' W 074°09'0 0.0
2016-Jul-14 01:34N 40°41' W 074°09'0 0.0
2016-Jul-14 00:34N 40°41' W 074°09'0 0.0
2016-Jul-13 23:34N 40°41' W 074°09'0 0.0
2016-Jul-13 22:33N 40°41' W 074°09'0 0.0
2016-Jul-13 21:33N 40°41' W 074°09'0 0.0
2016-Jul-13 20:34N 40°41' W 074°09'0 0.0
2016-Jul-13 19:33N 40°41' W 074°09'0 0.0
2016-Jul-13 18:33N 40°41' W 074°09'0 0.0
2016-Jul-13 17:33N 40°41' W 074°09'0 0.0
2016-Jul-13 16:33N 40°41' W 074°09'0 0.0
2016-Jul-13 15:33N 40°41' W 074°09'0 0.0
2016-Jul-13 14:34N 40°41' W 074°09'0 0.0
2016-Jul-13 13:33N 40°41' W 074°09'0 0.0
2016-Jul-13 12:33N 40°41' W 074°09'0 0.0
2016-Jul-13 11:33N 40°41' W 074°09'2 1.7
2016-Jul-13 10:34N 40°39' W 074°09'4 4.3
2016-Jul-13 09:33N 40°38' W 074°03'1111.0
2016-Jul-13 08:33N 40°29' W 073°55'1010.1
2016-Jul-13 07:33N 40°27' W 073°42'1717.2
2016-Jul-13 06:33N 40°29' W 073°19'1817.8
2016-Jul-13 05:33N 40°30' W 072°56'1818.1
2016-Jul-13 04:33N 40°31' W 072°32'3517.5
2016-Jul-13 02:34N 40°31' W 071°46'1817.6
2016-Jul-13 01:34N 40°32' W 071°23'4317.7
2016-Jul-12 23:09N 40°33' W 070°27'  

Dump ship's entire track history